Hauptseite
METAR-TAF:

METAR-TAF

Flughäfen :

Flughafen Sumburgh

Sumburgh, Shetlandinseln, Schottland

Breite: 59-53N, Länge: 001-18W, Höhe: 5 m

Beobachtung

Neuester Wetterbericht von vor 10 Minuten, um 03:50 UTC
Wind 13 kt aus Süd/Südwest
Temperatur 10°C
Luftfeuchtigkeit 87%
Luftdruck 1018 hPa
Sichtweite 10 km oder mehr

METAR: EGPB 160350Z AUTO 21013KT 9999 NCD 10/08 Q1018

Zeit: 04:00 (04:00 UTC)

Prognose

Neuester Wetterbericht von vor 2 Stunden und 3 Minuten, um 01:57 UTC
Gültige Prognose vom 16 um 03 UTC bis 16 um 12 UTC
Wind 17 kt aus Süd/Südwest
Sichtweite 10 km oder mehr
Leicht bewölkt in der Höhe von 2500 ft
Übergehend zu
vom 16 um 06 UTC bis 16 um 09 UTC
Wind 7 kt aus Süd

TAF: EGPB 160157Z 1603/1612 21017KT 9999 FEW025 BECMG 1606/1609 19007KT

Wetterbeobachtungen und Prognosen von mehr als 4000 Flughäfen (METAR und TAF Bericht).

Die verfügbaren Stationen werden durch gelbe und rote Markierungen auf der Karte dargestellt.

Führen Sie die Maus auf sie, um den Namen der Station zu sehen.

Darauf klicken, um die Beobachtung von Wetterbeobachtungen und Prognosen zu sehen.

Um die Karte zu ändern : klicken Sie auf den grünen Tasten mit einem schwarzen Kreuz Zum Vergrößern, auf den grünen Button mit einem Gedankenstrich zu verkleinern, oder auf die grünen Pfeile für benachbarte Karten.


METAR-TAF: